sensor_id;sensor_type;location;lat;lon;timestamp;pressure;altitude;pressure_sealevel;temperature;humidity
49645;BME280;36494;50.730;-1.932;2022-07-29T00:00:14;101227.45;;;16.53;100.00
49645;BME280;36494;50.730;-1.932;2022-07-29T00:02:39;101226.97;;;16.50;100.00
49645;BME280;36494;50.730;-1.932;2022-07-29T00:05:05;101229.60;;;16.48;100.00
49645;BME280;36494;50.730;-1.932;2022-07-29T00:07:30;101229.84;;;16.45;100.00
49645;BME280;36494;50.730;-1.932;2022-07-29T00:09:56;101227.52;;;16.42;100.00
49645;BME280;36494;50.730;-1.932;2022-07-29T00:12:24;101226.92;;;16.39;100.00
49645;BME280;36494;50.730;-1.932;2022-07-29T00:14:46;101226.73;;;16.36;100.00
49645;BME280;36494;50.730;-1.932;2022-07-29T00:17:11;101224.53;;;16.35;100.00
49645;BME280;36494;50.730;-1.932;2022-07-29T00:19:36;101219.91;;;16.30;100.00
49645;BME280;36494;50.730;-1.932;2022-07-29T00:22:02;101219.49;;;16.28;100.00
49645;BME280;36494;50.730;-1.932;2022-07-29T00:24:27;101214.50;;;16.27;100.00
49645;BME280;36494;50.730;-1.932;2022-07-29T00:26:53;101209.53;;;16.23;100.00
49645;BME280;36494;50.730;-1.932;2022-07-29T00:29:18;101211.11;;;16.22;100.00
49645;BME280;36494;50.730;-1.932;2022-07-29T00:31:43;101212.86;;;16.21;100.00
49645;BME280;36494;50.730;-1.932;2022-07-29T00:34:09;101212.63;;;16.19;100.00
49645;BME280;36494;50.730;-1.932;2022-07-29T00:36:34;101211.20;;;16.18;100.00
49645;BME280;36494;50.730;-1.932;2022-07-29T00:38:59;101209.73;;;16.16;100.00
49645;BME280;36494;50.730;-1.932;2022-07-29T00:41:24;101210.16;;;16.13;100.00
49645;BME280;36494;50.730;-1.932;2022-07-29T00:43:49;101211.31;;;16.10;100.00
49645;BME280;36494;50.730;-1.932;2022-07-29T00:46:14;101213.29;;;16.08;100.00
49645;BME280;36494;50.730;-1.932;2022-07-29T00:48:39;101212.04;;;16.07;100.00
49645;BME280;36494;50.730;-1.932;2022-07-29T00:51:05;101213.36;;;16.07;100.00
49645;BME280;36494;50.730;-1.932;2022-07-29T00:53:31;101213.56;;;16.05;100.00
49645;BME280;36494;50.730;-1.932;2022-07-29T00:55:56;101211.89;;;16.02;100.00
49645;BME280;36494;50.730;-1.932;2022-07-29T00:58:21;101210.59;;;15.99;100.00
49645;BME280;36494;50.730;-1.932;2022-07-29T01:00:46;101211.10;;;15.97;100.00
49645;BME280;36494;50.730;-1.932;2022-07-29T01:03:11;101208.31;;;15.95;100.00
49645;BME280;36494;50.730;-1.932;2022-07-29T01:05:36;101208.02;;;15.92;100.00
49645;BME280;36494;50.730;-1.932;2022-07-29T01:08:01;101209.32;;;15.89;100.00
49645;BME280;36494;50.730;-1.932;2022-07-29T01:10:27;101206.82;;;15.88;100.00
49645;BME280;36494;50.730;-1.932;2022-07-29T01:12:54;101205.67;;;15.86;100.00
49645;BME280;36494;50.730;-1.932;2022-07-29T01:15:18;101201.56;;;15.83;100.00
49645;BME280;36494;50.730;-1.932;2022-07-29T01:17:46;101202.45;;;15.79;100.00
49645;BME280;36494;50.730;-1.932;2022-07-29T01:20:13;101201.84;;;15.78;100.00
49645;BME280;36494;50.730;-1.932;2022-07-29T01:22:42;101205.18;;;15.76;100.00
49645;BME280;36494;50.730;-1.932;2022-07-29T01:25:13;101199.73;;;15.74;100.00
49645;BME280;36494;50.730;-1.932;2022-07-29T01:27:37;101197.43;;;15.71;100.00
49645;BME280;36494;50.730;-1.932;2022-07-29T01:29:55;101198.12;;;15.66;100.00
49645;BME280;36494;50.730;-1.932;2022-07-29T01:32:20;101202.32;;;15.64;100.00
49645;BME280;36494;50.730;-1.932;2022-07-29T01:34:48;101204.88;;;15.62;100.00
49645;BME280;36494;50.730;-1.932;2022-07-29T01:37:15;101208.27;;;15.60;100.00
49645;BME280;36494;50.730;-1.932;2022-07-29T01:39:35;101206.05;;;15.59;100.00
49645;BME280;36494;50.730;-1.932;2022-07-29T01:42:07;101204.62;;;15.56;100.00
49645;BME280;36494;50.730;-1.932;2022-07-29T01:44:31;101207.73;;;15.55;100.00
49645;BME280;36494;50.730;-1.932;2022-07-29T01:46:54;101212.98;;;15.53;100.00
49645;BME280;36494;50.730;-1.932;2022-07-29T01:49:18;101212.93;;;15.53;100.00
49645;BME280;36494;50.730;-1.932;2022-07-29T01:51:45;101212.12;;;15.52;100.00
49645;BME280;36494;50.730;-1.932;2022-07-29T01:54:12;101215.59;;;15.50;100.00
49645;BME280;36494;50.730;-1.932;2022-07-29T01:56:33;101221.68;;;15.51;100.00
49645;BME280;36494;50.730;-1.932;2022-07-29T01:58:58;101225.47;;;15.49;100.00
49645;BME280;36494;50.730;-1.932;2022-07-29T02:01:24;101227.51;;;15.48;100.00
49645;BME280;36494;50.730;-1.932;2022-07-29T02:03:50;101227.44;;;15.48;100.00
49645;BME280;36494;50.730;-1.932;2022-07-29T02:06:18;101227.83;;;15.46;100.00
49645;BME280;36494;50.730;-1.932;2022-07-29T02:08:41;101222.83;;;15.44;100.00
49645;BME280;36494;50.730;-1.932;2022-07-29T02:11:07;101219.23;;;15.42;100.00
49645;BME280;36494;50.730;-1.932;2022-07-29T02:13:34;101219.48;;;15.38;100.00
49645;BME280;36494;50.730;-1.932;2022-07-29T02:15:58;101221.46;;;15.36;100.00
49645;BME280;36494;50.730;-1.932;2022-07-29T02:18:23;101218.00;;;15.34;100.00
49645;BME280;36494;50.730;-1.932;2022-07-29T02:20:50;101216.70;;;15.33;100.00
49645;BME280;36494;50.730;-1.932;2022-07-29T02:23:16;101219.79;;;15.30;100.00
49645;BME280;36494;50.730;-1.932;2022-07-29T02:25:39;101221.99;;;15.26;100.00
49645;BME280;36494;50.730;-1.932;2022-07-29T02:28:04;101222.61;;;15.24;100.00
49645;BME280;36494;50.730;-1.932;2022-07-29T02:30:30;101221.42;;;15.21;100.00
49645;BME280;36494;50.730;-1.932;2022-07-29T02:32:54;101226.70;;;15.17;100.00
49645;BME280;36494;50.730;-1.932;2022-07-29T02:35:19;101227.60;;;15.13;100.00
49645;BME280;36494;50.730;-1.932;2022-07-29T02:37:45;101228.67;;;15.10;100.00
49645;BME280;36494;50.730;-1.932;2022-07-29T02:40:11;101230.71;;;15.08;100.00
49645;BME280;36494;50.730;-1.932;2022-07-29T02:42:36;101230.83;;;15.05;100.00
49645;BME280;36494;50.730;-1.932;2022-07-29T02:45:00;101228.36;;;15.02;100.00
49645;BME280;36494;50.730;-1.932;2022-07-29T02:47:31;101223.49;;;14.99;100.00
49645;BME280;36494;50.730;-1.932;2022-07-29T02:49:55;101225.45;;;14.96;100.00
49645;BME280;36494;50.730;-1.932;2022-07-29T02:52:19;101227.78;;;14.93;100.00
49645;BME280;36494;50.730;-1.932;2022-07-29T02:54:44;101226.12;;;14.91;100.00
49645;BME280;36494;50.730;-1.932;2022-07-29T02:57:17;101228.65;;;14.88;100.00
49645;BME280;36494;50.730;-1.932;2022-07-29T02:59:34;101229.53;;;14.86;100.00
49645;BME280;36494;50.730;-1.932;2022-07-29T03:01:59;101227.96;;;14.86;100.00
49645;BME280;36494;50.730;-1.932;2022-07-29T03:04:24;101228.51;;;14.83;100.00
49645;BME280;36494;50.730;-1.932;2022-07-29T03:06:48;101222.94;;;14.81;100.00
49645;BME280;36494;50.730;-1.932;2022-07-29T03:11:38;101216.92;;;14.78;100.00
49645;BME280;36494;50.730;-1.932;2022-07-29T03:14:04;101215.29;;;14.78;100.00
49645;BME280;36494;50.730;-1.932;2022-07-29T03:16:29;101210.80;;;14.76;100.00
49645;BME280;36494;50.730;-1.932;2022-07-29T03:18:55;101210.73;;;14.75;100.00
49645;BME280;36494;50.730;-1.932;2022-07-29T03:21:19;101212.96;;;14.74;100.00
49645;BME280;36494;50.730;-1.932;2022-07-29T03:23:45;101215.71;;;14.73;100.00
49645;BME280;36494;50.730;-1.932;2022-07-29T03:26:10;101216.43;;;14.72;100.00
49645;BME280;36494;50.730;-1.932;2022-07-29T03:28:35;101213.54;;;14.71;100.00
49645;BME280;36494;50.730;-1.932;2022-07-29T03:31:00;101212.40;;;14.70;100.00
49645;BME280;36494;50.730;-1.932;2022-07-29T03:33:26;101211.87;;;14.69;100.00
49645;BME280;36494;50.730;-1.932;2022-07-29T03:35:51;101212.27;;;14.66;100.00
49645;BME280;36494;50.730;-1.932;2022-07-29T03:38:16;101209.57;;;14.65;100.00
49645;BME280;36494;50.730;-1.932;2022-07-29T03:40:46;101211.01;;;14.65;100.00
49645;BME280;36494;50.730;-1.932;2022-07-29T03:43:08;101212.99;;;14.63;100.00
49645;BME280;36494;50.730;-1.932;2022-07-29T03:45:33;101210.56;;;14.63;100.00
49645;BME280;36494;50.730;-1.932;2022-07-29T03:48:01;101210.46;;;14.61;100.00
49645;BME280;36494;50.730;-1.932;2022-07-29T03:50:23;101214.53;;;14.60;100.00
49645;BME280;36494;50.730;-1.932;2022-07-29T03:52:49;101215.90;;;14.58;100.00
49645;BME280;36494;50.730;-1.932;2022-07-29T03:55:14;101217.97;;;14.55;100.00
49645;BME280;36494;50.730;-1.932;2022-07-29T03:57:40;101218.85;;;14.53;100.00
49645;BME280;36494;50.730;-1.932;2022-07-29T04:00:05;101220.26;;;14.51;100.00
49645;BME280;36494;50.730;-1.932;2022-07-29T04:02:29;101221.67;;;14.47;100.00
49645;BME280;36494;50.730;-1.932;2022-07-29T04:04:54;101222.52;;;14.44;100.00
49645;BME280;36494;50.730;-1.932;2022-07-29T04:07:20;101222.42;;;14.41;100.00
49645;BME280;36494;50.730;-1.932;2022-07-29T04:09:45;101221.16;;;14.37;100.00
49645;BME280;36494;50.730;-1.932;2022-07-29T04:12:10;101218.22;;;14.34;100.00
49645;BME280;36494;50.730;-1.932;2022-07-29T04:14:35;101218.51;;;14.33;100.00
49645;BME280;36494;50.730;-1.932;2022-07-29T04:17:02;101220.64;;;14.31;100.00
49645;BME280;36494;50.730;-1.932;2022-07-29T04:19:26;101218.75;;;14.28;100.00
49645;BME280;36494;50.730;-1.932;2022-07-29T04:21:51;101221.85;;;14.23;100.00
49645;BME280;36494;50.730;-1.932;2022-07-29T04:24:17;101223.87;;;14.20;100.00
49645;BME280;36494;50.730;-1.932;2022-07-29T04:26:42;101225.62;;;14.17;100.00
49645;BME280;36494;50.730;-1.932;2022-07-29T04:29:07;101227.95;;;14.14;100.00
49645;BME280;36494;50.730;-1.932;2022-07-29T04:31:33;101226.23;;;14.12;100.00
49645;BME280;36494;50.730;-1.932;2022-07-29T04:33:58;101228.03;;;14.09;100.00
49645;BME280;36494;50.730;-1.932;2022-07-29T04:36:23;101231.00;;;14.08;100.00
49645;BME280;36494;50.730;-1.932;2022-07-29T04:38:48;101228.59;;;14.04;100.00
49645;BME280;36494;50.730;-1.932;2022-07-29T04:41:14;101228.59;;;14.03;100.00
49645;BME280;36494;50.730;-1.932;2022-07-29T04:43:39;101225.37;;;14.02;100.00
49645;BME280;36494;50.730;-1.932;2022-07-29T04:46:06;101229.88;;;13.99;100.00
49645;BME280;36494;50.730;-1.932;2022-07-29T04:48:29;101229.89;;;13.97;100.00
49645;BME280;36494;50.730;-1.932;2022-07-29T04:50:55;101229.82;;;13.97;100.00
49645;BME280;36494;50.730;-1.932;2022-07-29T04:53:20;101232.73;;;13.96;100.00
49645;BME280;36494;50.730;-1.932;2022-07-29T04:55:46;101239.38;;;13.94;100.00
49645;BME280;36494;50.730;-1.932;2022-07-29T04:58:11;101245.87;;;13.93;100.00
49645;BME280;36494;50.730;-1.932;2022-07-29T05:00:36;101243.82;;;13.92;100.00
49645;BME280;36494;50.730;-1.932;2022-07-29T05:03:02;101241.77;;;13.92;100.00
49645;BME280;36494;50.730;-1.932;2022-07-29T05:05:27;101242.05;;;13.91;100.00
49645;BME280;36494;50.730;-1.932;2022-07-29T05:07:52;101240.21;;;13.92;100.00
49645;BME280;36494;50.730;-1.932;2022-07-29T05:10:17;101239.91;;;13.91;100.00
49645;BME280;36494;50.730;-1.932;2022-07-29T05:12:43;101241.14;;;13.92;100.00
49645;BME280;36494;50.730;-1.932;2022-07-29T05:15:09;101238.82;;;13.93;100.00
49645;BME280;36494;50.730;-1.932;2022-07-29T05:17:33;101241.48;;;13.94;100.00
49645;BME280;36494;50.730;-1.932;2022-07-29T05:19:59;101243.02;;;13.94;100.00
49645;BME280;36494;50.730;-1.932;2022-07-29T05:22:24;101248.17;;;13.95;100.00
49645;BME280;36494;50.730;-1.932;2022-07-29T05:24:50;101250.56;;;13.97;100.00
49645;BME280;36494;50.730;-1.932;2022-07-29T05:27:15;101253.04;;;13.98;100.00
49645;BME280;36494;50.730;-1.932;2022-07-29T05:29:40;101253.37;;;13.98;100.00
49645;BME280;36494;50.730;-1.932;2022-07-29T05:32:06;101257.06;;;13.99;100.00
49645;BME280;36494;50.730;-1.932;2022-07-29T05:34:31;101261.22;;;14.02;100.00
49645;BME280;36494;50.730;-1.932;2022-07-29T05:36:57;101262.96;;;14.03;100.00
49645;BME280;36494;50.730;-1.932;2022-07-29T05:39:22;101259.79;;;14.04;100.00
49645;BME280;36494;50.730;-1.932;2022-07-29T05:41:47;101259.09;;;14.08;100.00
49645;BME280;36494;50.730;-1.932;2022-07-29T05:44:12;101263.20;;;14.10;100.00
49645;BME280;36494;50.730;-1.932;2022-07-29T05:46:38;101269.36;;;14.13;100.00
49645;BME280;36494;50.730;-1.932;2022-07-29T05:49:03;101271.18;;;14.16;100.00
49645;BME280;36494;50.730;-1.932;2022-07-29T05:51:28;101272.75;;;14.21;100.00
49645;BME280;36494;50.730;-1.932;2022-07-29T05:53:54;101270.92;;;14.24;100.00
49645;BME280;36494;50.730;-1.932;2022-07-29T05:56:19;101270.28;;;14.28;100.00
49645;BME280;36494;50.730;-1.932;2022-07-29T05:58:44;101268.97;;;14.31;100.00
49645;BME280;36494;50.730;-1.932;2022-07-29T06:01:10;101269.32;;;14.37;100.00
49645;BME280;36494;50.730;-1.932;2022-07-29T06:03:35;101271.05;;;14.42;100.00
49645;BME280;36494;50.730;-1.932;2022-07-29T06:06:01;101274.24;;;14.49;100.00
49645;BME280;36494;50.730;-1.932;2022-07-29T06:08:26;101273.95;;;14.54;100.00
49645;BME280;36494;50.730;-1.932;2022-07-29T06:10:51;101271.77;;;14.62;100.00
49645;BME280;36494;50.730;-1.932;2022-07-29T06:13:17;101274.38;;;14.69;100.00
49645;BME280;36494;50.730;-1.932;2022-07-29T06:15:42;101272.66;;;14.76;100.00
49645;BME280;36494;50.730;-1.932;2022-07-29T06:18:07;101272.73;;;14.83;100.00
49645;BME280;36494;50.730;-1.932;2022-07-29T06:20:33;101275.75;;;14.92;100.00
49645;BME280;36494;50.730;-1.932;2022-07-29T06:22:58;101280.58;;;14.99;100.00
49645;BME280;36494;50.730;-1.932;2022-07-29T06:25:23;101280.37;;;15.09;100.00
49645;BME280;36494;50.730;-1.932;2022-07-29T06:27:48;101281.69;;;15.17;100.00
49645;BME280;36494;50.730;-1.932;2022-07-29T06:30:14;101280.03;;;15.24;100.00
49645;BME280;36494;50.730;-1.932;2022-07-29T06:32:39;101277.52;;;15.30;100.00
49645;BME280;36494;50.730;-1.932;2022-07-29T06:35:05;101279.43;;;15.38;100.00
49645;BME280;36494;50.730;-1.932;2022-07-29T06:37:30;101279.10;;;15.45;100.00
49645;BME280;36494;50.730;-1.932;2022-07-29T06:39:55;101283.42;;;15.54;100.00
49645;BME280;36494;50.730;-1.932;2022-07-29T06:42:20;101282.71;;;15.62;100.00
49645;BME280;36494;50.730;-1.932;2022-07-29T06:44:46;101287.34;;;15.70;100.00
49645;BME280;36494;50.730;-1.932;2022-07-29T06:47:11;101291.45;;;15.78;100.00
49645;BME280;36494;50.730;-1.932;2022-07-29T06:49:36;101293.49;;;15.85;100.00
49645;BME280;36494;50.730;-1.932;2022-07-29T06:52:02;101295.08;;;15.92;100.00
49645;BME280;36494;50.730;-1.932;2022-07-29T06:54:27;101299.88;;;16.00;100.00
49645;BME280;36494;50.730;-1.932;2022-07-29T06:56:52;101300.80;;;16.07;100.00
49645;BME280;36494;50.730;-1.932;2022-07-29T06:59:18;101303.71;;;16.14;100.00
49645;BME280;36494;50.730;-1.932;2022-07-29T07:01:43;101304.09;;;16.21;100.00
49645;BME280;36494;50.730;-1.932;2022-07-29T07:04:09;101303.20;;;16.26;100.00
49645;BME280;36494;50.730;-1.932;2022-07-29T07:06:34;101302.02;;;16.31;100.00
49645;BME280;36494;50.730;-1.932;2022-07-29T07:08:59;101301.61;;;16.37;100.00
49645;BME280;36494;50.730;-1.932;2022-07-29T07:11:25;101299.34;;;16.42;100.00
49645;BME280;36494;50.730;-1.932;2022-07-29T07:13:50;101292.46;;;16.47;100.00
49645;BME280;36494;50.730;-1.932;2022-07-29T07:16:16;101286.63;;;16.52;100.00
49645;BME280;36494;50.730;-1.932;2022-07-29T07:18:41;101291.29;;;16.56;100.00
49645;BME280;36494;50.730;-1.932;2022-07-29T07:21:06;101297.81;;;16.62;100.00
49645;BME280;36494;50.730;-1.932;2022-07-29T07:23:31;101303.12;;;16.66;100.00
49645;BME280;36494;50.730;-1.932;2022-07-29T07:25:57;101305.25;;;16.71;100.00
49645;BME280;36494;50.730;-1.932;2022-07-29T07:28:22;101304.92;;;16.77;100.00
49645;BME280;36494;50.730;-1.932;2022-07-29T07:30:48;101306.32;;;16.81;100.00
49645;BME280;36494;50.730;-1.932;2022-07-29T07:33:14;101306.29;;;16.86;100.00
49645;BME280;36494;50.730;-1.932;2022-07-29T07:35:39;101306.35;;;16.92;100.00
49645;BME280;36494;50.730;-1.932;2022-07-29T07:38:05;101303.30;;;16.96;100.00
49645;BME280;36494;50.730;-1.932;2022-07-29T07:40:31;101306.24;;;17.02;100.00
49645;BME280;36494;50.730;-1.932;2022-07-29T07:42:56;101306.20;;;17.08;100.00
49645;BME280;36494;50.730;-1.932;2022-07-29T07:45:22;101308.05;;;17.16;100.00
49645;BME280;36494;50.730;-1.932;2022-07-29T07:47:47;101309.15;;;17.29;100.00
49645;BME280;36494;50.730;-1.932;2022-07-29T07:50:12;101307.99;;;17.42;100.00
49645;BME280;36494;50.730;-1.932;2022-07-29T07:52:46;101311.67;;;17.45;100.00
49645;BME280;36494;50.730;-1.932;2022-07-29T07:55:04;101311.75;;;17.53;100.00
49645;BME280;36494;50.730;-1.932;2022-07-29T07:57:28;101311.97;;;17.65;100.00
49645;BME280;36494;50.730;-1.932;2022-07-29T07:59:53;101313.23;;;17.77;100.00
49645;BME280;36494;50.730;-1.932;2022-07-29T08:02:19;101311.71;;;17.88;100.00
49645;BME280;36494;50.730;-1.932;2022-07-29T08:04:44;101303.48;;;17.91;100.00
49645;BME280;36494;50.730;-1.932;2022-07-29T08:07:09;101303.94;;;18.02;100.00
49645;BME280;36494;50.730;-1.932;2022-07-29T08:09:35;101309.47;;;18.15;100.00
49645;BME280;36494;50.730;-1.932;2022-07-29T08:12:00;101313.59;;;18.28;100.00
49645;BME280;36494;50.730;-1.932;2022-07-29T08:14:26;101312.93;;;18.57;100.00
49645;BME280;36494;50.730;-1.932;2022-07-29T08:16:51;101309.48;;;18.63;100.00
49645;BME280;36494;50.730;-1.932;2022-07-29T08:19:16;101310.47;;;18.78;100.00
49645;BME280;36494;50.730;-1.932;2022-07-29T08:21:41;101310.38;;;19.00;100.00
49645;BME280;36494;50.730;-1.932;2022-07-29T08:24:07;101306.87;;;19.09;100.00
49645;BME280;36494;50.730;-1.932;2022-07-29T08:26:32;101308.71;;;19.18;100.00
49645;BME280;36494;50.730;-1.932;2022-07-29T08:28:58;101308.55;;;19.36;100.00
49645;BME280;36494;50.730;-1.932;2022-07-29T08:31:23;101307.47;;;19.39;100.00
49645;BME280;36494;50.730;-1.932;2022-07-29T08:33:48;101307.22;;;19.47;100.00
49645;BME280;36494;50.730;-1.932;2022-07-29T08:36:14;101306.24;;;19.57;100.00
49645;BME280;36494;50.730;-1.932;2022-07-29T08:38:39;101301.87;;;19.71;100.00
49645;BME280;36494;50.730;-1.932;2022-07-29T08:41:04;101297.88;;;19.84;100.00
49645;BME280;36494;50.730;-1.932;2022-07-29T08:43:29;101297.26;;;19.95;100.00
49645;BME280;36494;50.730;-1.932;2022-07-29T08:45:55;101301.49;;;20.12;100.00
49645;BME280;36494;50.730;-1.932;2022-07-29T08:48:22;101302.95;;;20.21;100.00
49645;BME280;36494;50.730;-1.932;2022-07-29T08:50:47;101306.56;;;20.28;100.00
49645;BME280;36494;50.730;-1.932;2022-07-29T08:53:12;101309.51;;;20.33;100.00
49645;BME280;36494;50.730;-1.932;2022-07-29T08:55:36;101307.99;;;20.35;100.00
49645;BME280;36494;50.730;-1.932;2022-07-29T08:58:01;101312.34;;;20.39;100.00
49645;BME280;36494;50.730;-1.932;2022-07-29T09:00:27;101309.99;;;20.53;99.20
49645;BME280;36494;50.730;-1.932;2022-07-29T09:02:57;101309.16;;;20.65;96.44
49645;BME280;36494;50.730;-1.932;2022-07-29T09:05:17;101312.79;;;20.71;95.31
49645;BME280;36494;50.730;-1.932;2022-07-29T09:07:42;101312.08;;;20.79;95.30
49645;BME280;36494;50.730;-1.932;2022-07-29T09:10:08;101314.83;;;20.87;90.52
49645;BME280;36494;50.730;-1.932;2022-07-29T09:12:33;101312.52;;;20.89;90.33
49645;BME280;36494;50.730;-1.932;2022-07-29T09:14:58;101310.15;;;20.77;82.98
49645;BME280;36494;50.730;-1.932;2022-07-29T09:19:48;101313.41;;;21.09;83.85
49645;BME280;36494;50.730;-1.932;2022-07-29T09:24:42;101314.31;;;21.24;83.65
49645;BME280;36494;50.730;-1.932;2022-07-29T09:27:09;101312.53;;;21.27;73.18
49645;BME280;36494;50.730;-1.932;2022-07-29T09:29:30;101314.64;;;21.26;74.24
49645;BME280;36494;50.730;-1.932;2022-07-29T09:31:55;101312.13;;;21.35;73.01
49645;BME280;36494;50.730;-1.932;2022-07-29T09:34:22;101313.12;;;21.45;74.30
49645;BME280;36494;50.730;-1.932;2022-07-29T09:36:47;101315.37;;;21.35;71.32
49645;BME280;36494;50.730;-1.932;2022-07-29T09:39:12;101317.57;;;21.49;81.60
49645;BME280;36494;50.730;-1.932;2022-07-29T09:41:46;101317.71;;;21.69;78.10
49645;BME280;36494;50.730;-1.932;2022-07-29T09:44:02;101314.14;;;21.79;74.70
49645;BME280;36494;50.730;-1.932;2022-07-29T09:46:27;101309.93;;;21.78;71.26
49645;BME280;36494;50.730;-1.932;2022-07-29T09:49:05;101308.34;;;21.88;73.75
49645;BME280;36494;50.730;-1.932;2022-07-29T09:51:18;101310.36;;;22.13;71.54
49645;BME280;36494;50.730;-1.932;2022-07-29T09:53:43;101306.97;;;22.23;82.89
49645;BME280;36494;50.730;-1.932;2022-07-29T09:56:08;101309.71;;;22.41;68.90
49645;BME280;36494;50.730;-1.932;2022-07-29T09:58:33;101308.43;;;22.32;65.06
49645;BME280;36494;50.730;-1.932;2022-07-29T10:00:59;101310.76;;;22.44;78.72
49645;BME280;36494;50.730;-1.932;2022-07-29T10:03:25;101307.55;;;22.67;68.67
49645;BME280;36494;50.730;-1.932;2022-07-29T10:08:24;101301.89;;;23.26;70.48
49645;BME280;36494;50.730;-1.932;2022-07-29T10:10:42;101302.26;;;23.30;67.16
49645;BME280;36494;50.730;-1.932;2022-07-29T10:13:08;101306.13;;;23.18;67.04
49645;BME280;36494;50.730;-1.932;2022-07-29T10:15:33;101306.51;;;23.05;68.22
49645;BME280;36494;50.730;-1.932;2022-07-29T10:17:56;101306.57;;;23.29;67.25
49645;BME280;36494;50.730;-1.932;2022-07-29T10:20:22;101313.37;;;23.55;62.96
49645;BME280;36494;50.730;-1.932;2022-07-29T10:22:47;101312.56;;;23.51;60.98
49645;BME280;36494;50.730;-1.932;2022-07-29T10:25:11;101313.90;;;23.37;57.98
49645;BME280;36494;50.730;-1.932;2022-07-29T10:27:37;101314.99;;;23.59;64.62
49645;BME280;36494;50.730;-1.932;2022-07-29T10:30:03;101316.79;;;23.46;64.18
49645;BME280;36494;50.730;-1.932;2022-07-29T10:32:36;101312.51;;;23.43;59.43
49645;BME280;36494;50.730;-1.932;2022-07-29T10:35:09;101315.23;;;23.42;62.10
49645;BME280;36494;50.730;-1.932;2022-07-29T10:37:23;101312.23;;;23.67;56.62
49645;BME280;36494;50.730;-1.932;2022-07-29T10:39:51;101313.42;;;23.48;56.86
49645;BME280;36494;50.730;-1.932;2022-07-29T10:42:15;101307.31;;;23.78;47.44
49645;BME280;36494;50.730;-1.932;2022-07-29T10:44:34;101309.97;;;23.62;50.52
49645;BME280;36494;50.730;-1.932;2022-07-29T10:46:59;101314.61;;;23.86;50.30
49645;BME280;36494;50.730;-1.932;2022-07-29T10:49:26;101312.91;;;23.76;49.36
49645;BME280;36494;50.730;-1.932;2022-07-29T10:51:56;101314.51;;;23.70;50.13
49645;BME280;36494;50.730;-1.932;2022-07-29T10:54:15;101316.00;;;23.66;48.70
49645;BME280;36494;50.730;-1.932;2022-07-29T10:56:40;101314.98;;;23.94;46.17
49645;BME280;36494;50.730;-1.932;2022-07-29T10:59:24;101317.43;;;23.81;47.91
49645;BME280;36494;50.730;-1.932;2022-07-29T11:01:31;101319.41;;;23.98;44.72
49645;BME280;36494;50.730;-1.932;2022-07-29T11:03:56;101323.13;;;24.25;46.11
49645;BME280;36494;50.730;-1.932;2022-07-29T11:06:21;101328.34;;;24.35;50.37
49645;BME280;36494;50.730;-1.932;2022-07-29T11:13:45;101329.11;;;24.81;52.25
49645;BME280;36494;50.730;-1.932;2022-07-29T11:16:02;101328.59;;;24.54;48.71
49645;BME280;36494;50.730;-1.932;2022-07-29T11:18:27;101329.09;;;24.76;51.08
49645;BME280;36494;50.730;-1.932;2022-07-29T11:20:52;101335.25;;;24.73;46.64
49645;BME280;36494;50.730;-1.932;2022-07-29T11:23:20;101334.13;;;25.05;53.59
49645;BME280;36494;50.730;-1.932;2022-07-29T11:25:43;101330.27;;;25.37;53.59
49645;BME280;36494;50.730;-1.932;2022-07-29T11:28:12;101331.10;;;25.40;53.31
49645;BME280;36494;50.730;-1.932;2022-07-29T11:30:47;101330.09;;;24.38;56.15
49645;BME280;36494;50.730;-1.932;2022-07-29T11:32:59;101328.63;;;25.02;61.83
49645;BME280;36494;50.730;-1.932;2022-07-29T11:35:24;101324.42;;;25.01;60.03
49645;BME280;36494;50.730;-1.932;2022-07-29T11:40:16;101326.45;;;25.49;55.48
49645;BME280;36494;50.730;-1.932;2022-07-29T11:42:43;101325.34;;;25.24;57.39
49645;BME280;36494;50.730;-1.932;2022-07-29T11:45:07;101331.42;;;25.02;62.07
49645;BME280;36494;50.730;-1.932;2022-07-29T11:47:31;101332.90;;;24.90;62.07
49645;BME280;36494;50.730;-1.932;2022-07-29T11:49:58;101333.70;;;24.33;68.47
49645;BME280;36494;50.730;-1.932;2022-07-29T11:52:21;101333.77;;;24.32;70.87
49645;BME280;36494;50.730;-1.932;2022-07-29T11:54:48;101331.93;;;23.95;71.99
49645;BME280;36494;50.730;-1.932;2022-07-29T11:57:12;101330.63;;;23.88;76.34
49645;BME280;36494;50.730;-1.932;2022-07-29T11:59:39;101325.37;;;23.80;84.51
49645;BME280;36494;50.730;-1.932;2022-07-29T12:02:04;101324.65;;;24.28;83.55
49645;BME280;36494;50.730;-1.932;2022-07-29T12:04:29;101318.01;;;24.72;75.69
49645;BME280;36494;50.730;-1.932;2022-07-29T12:06:54;101312.42;;;23.92;71.86
49645;BME280;36494;50.730;-1.932;2022-07-29T12:09:20;101311.58;;;24.24;81.52
49645;BME280;36494;50.730;-1.932;2022-07-29T12:11:46;101310.77;;;24.48;77.65
49645;BME280;36494;50.730;-1.932;2022-07-29T12:16:36;101312.44;;;24.62;75.44
49645;BME280;36494;50.730;-1.932;2022-07-29T12:19:01;101308.57;;;24.01;84.28
49645;BME280;36494;50.730;-1.932;2022-07-29T12:21:26;101307.63;;;24.79;75.63
49645;BME280;36494;50.730;-1.932;2022-07-29T12:23:53;101301.22;;;25.12;65.22
49645;BME280;36494;50.730;-1.932;2022-07-29T12:26:16;101303.63;;;25.45;66.59
49645;BME280;36494;50.730;-1.932;2022-07-29T12:28:42;101301.18;;;25.71;65.33
49645;BME280;36494;50.730;-1.932;2022-07-29T12:31:13;101304.18;;;26.14;68.96
49645;BME280;36494;50.730;-1.932;2022-07-29T12:33:33;101305.49;;;26.19;68.32
49645;BME280;36494;50.730;-1.932;2022-07-29T12:36:00;101304.42;;;26.22;70.38
49645;BME280;36494;50.730;-1.932;2022-07-29T12:38:24;101304.60;;;25.01;77.26
49645;BME280;36494;50.730;-1.932;2022-07-29T12:40:51;101303.89;;;24.36;79.08